createdAt,value
2023-03-21T00:01:04.243Z,27.98
2023-03-21T00:03:33.783Z,28.23
2023-03-21T00:06:09.381Z,28.13
2023-03-21T00:08:38.216Z,28.88
2023-03-21T00:11:13.081Z,29.35
2023-03-21T00:13:42.686Z,29.95
2023-03-21T00:16:19.003Z,30.83
2023-03-21T00:19:09.866Z,28.67
2023-03-21T00:24:26.373Z,33.35
2023-03-21T00:26:57.332Z,31.77
2023-03-21T00:29:27.982Z,32.70
2023-03-21T00:34:36.511Z,30.05
2023-03-21T00:37:14.527Z,31.30
2023-03-21T00:39:44.390Z,30.20
2023-03-21T00:42:12.911Z,30.63
2023-03-21T00:44:41.672Z,31.23
2023-03-21T00:47:12.298Z,25.88
2023-03-21T00:49:41.787Z,29.05
2023-03-21T00:52:24.741Z,29.23
2023-03-21T00:54:58.654Z,29.52
2023-03-21T00:57:37.881Z,28.38
2023-03-21T01:00:10.797Z,28.45
2023-03-21T01:03:02.536Z,28.63
2023-03-21T01:06:00.163Z,29.52
2023-03-21T01:08:33.178Z,30.27
2023-03-21T01:11:13.671Z,29.80
2023-03-21T01:13:52.828Z,31.05
2023-03-21T01:16:25.450Z,30.35
2023-03-21T01:18:53.519Z,29.48
2023-03-21T01:21:20.998Z,27.95
2023-03-21T01:23:48.645Z,28.27
2023-03-21T01:26:16.472Z,29.45
2023-03-21T01:28:45.830Z,29.23
2023-03-21T01:31:15.353Z,28.83
2023-03-21T01:33:43.987Z,29.20
2023-03-21T01:36:24.578Z,27.75
2023-03-21T01:38:57.068Z,28.75
2023-03-21T01:41:44.019Z,29.88
2023-03-21T01:44:19.432Z,29.27
2023-03-21T01:47:11.553Z,30.80
2023-03-21T01:50:04.962Z,30.90
2023-03-21T01:52:41.842Z,29.65
2023-03-21T01:55:18.256Z,31.92
2023-03-21T01:58:06.352Z,31.33
2023-03-21T02:00:51.553Z,31.42
2023-03-21T02:03:38.534Z,30.45
2023-03-21T02:06:35.432Z,30.83
2023-03-21T02:09:35.120Z,31.42
2023-03-21T02:12:08.838Z,29.92
2023-03-21T02:14:38.933Z,30.15
2023-03-21T02:17:18.133Z,31.58
2023-03-21T02:20:09.131Z,30.48
2023-03-21T02:23:05.922Z,29.55
2023-03-21T02:25:53.267Z,30.73
2023-03-21T02:28:47.381Z,32.28
2023-03-21T02:31:21.333Z,29.90
2023-03-21T02:33:59.862Z,32.50
2023-03-21T02:36:58.817Z,31.50
2023-03-21T02:39:32.675Z,29.73
2023-03-21T02:42:09.637Z,33.17
2023-03-21T02:44:52.276Z,31.17
2023-03-21T02:47:34.840Z,31.63
2023-03-21T02:50:21.924Z,31.55
2023-03-21T02:52:53.770Z,31.17
2023-03-21T02:55:30.705Z,30.15
2023-03-21T02:58:12.856Z,29.38
2023-03-21T03:00:48.625Z,34.65
2023-03-21T03:03:33.951Z,31.23
2023-03-21T03:06:15.562Z,31.25
2023-03-21T03:09:12.257Z,31.35
2023-03-21T03:11:43.276Z,30.63
2023-03-21T03:14:49.862Z,29.83
2023-03-21T03:17:39.141Z,30.55
2023-03-21T03:20:18.164Z,29.20
2023-03-21T03:22:53.314Z,30.20
2023-03-21T03:25:41.568Z,29.98
2023-03-21T03:28:14.460Z,30.42
2023-03-21T03:30:57.092Z,29.90
2023-03-21T03:33:38.065Z,28.85
2023-03-21T03:36:12.786Z,29.08
2023-03-21T03:38:48.953Z,27.60
2023-03-21T03:41:25.590Z,28.48
2023-03-21T03:46:39.804Z,26.75
2023-03-21T03:49:17.132Z,28.38
2023-03-21T03:52:00.300Z,28.77
2023-03-21T03:54:46.608Z,28.85
2023-03-21T03:57:15.052Z,29.67
2023-03-21T03:59:44.709Z,30.58
2023-03-21T04:02:15.118Z,30.92
2023-03-21T04:04:43.525Z,28.77
2023-03-21T04:07:11.373Z,28.20
2023-03-21T04:09:44.953Z,27.70
2023-03-21T04:12:17.748Z,27.63
2023-03-21T04:15:10.036Z,28.70
2023-03-21T04:17:45.472Z,26.95
2023-03-21T04:22:55.517Z,26.95
2023-03-21T04:25:32.774Z,27.55
2023-03-21T04:28:03.132Z,27.55
2023-03-21T04:31:01.355Z,27.92
2023-03-21T04:33:39.966Z,27.77
2023-03-21T04:36:09.605Z,28.27
2023-03-21T04:38:39.195Z,27.15
2023-03-21T04:41:07.361Z,27.17
2023-03-21T04:43:38.191Z,27.23
2023-03-21T04:46:06.493Z,27.67
2023-03-21T04:48:34.240Z,26.02
2023-03-21T04:51:02.594Z,26.90
2023-03-21T04:53:31.873Z,27.13
2023-03-21T04:56:00.909Z,26.33
2023-03-21T04:58:28.790Z,27.63
2023-03-21T05:00:57.478Z,27.58
2023-03-21T05:03:25.357Z,27.87
2023-03-21T05:05:53.497Z,26.52
2023-03-21T05:08:21.317Z,26.90
2023-03-21T05:10:52.807Z,25.95
2023-03-21T05:15:50.216Z,24.98
2023-03-21T05:18:24.982Z,25.75
2023-03-21T05:21:13.545Z,25.85
2023-03-21T05:23:41.632Z,25.75
2023-03-21T05:26:10.820Z,24.73
2023-03-21T05:28:45.143Z,24.05
2023-03-21T05:31:18.280Z,22.88
2023-03-21T05:33:48.823Z,25.23
2023-03-21T05:36:24.875Z,24.70
2023-03-21T05:38:52.855Z,23.52
2023-03-21T05:41:21.568Z,23.80
2023-03-21T05:43:49.277Z,28.70
2023-03-21T05:46:18.093Z,30.48
2023-03-21T05:48:46.071Z,30.60
2023-03-21T05:51:16.007Z,27.73
2023-03-21T05:53:43.645Z,27.00
2023-03-21T05:56:12.256Z,27.27
2023-03-21T05:58:50.695Z,27.63
2023-03-21T06:01:19.281Z,23.17
2023-03-21T06:03:55.789Z,23.77
2023-03-21T06:06:25.277Z,22.65
2023-03-21T06:08:55.592Z,23.15
2023-03-21T06:11:31.494Z,23.92
2023-03-21T06:14:19.099Z,22.90
2023-03-21T06:16:55.253Z,24.65
2023-03-21T06:19:23.223Z,21.85
2023-03-21T06:22:09.229Z,24.63
2023-03-21T06:24:40.034Z,22.42
2023-03-21T06:27:08.149Z,23.00
2023-03-21T06:29:51.518Z,23.02
2023-03-21T06:32:19.826Z,22.45
2023-03-21T06:34:50.462Z,22.70
2023-03-21T06:37:19.183Z,21.42
2023-03-21T06:39:47.108Z,21.83
2023-03-21T06:42:15.509Z,21.55
2023-03-21T06:44:43.344Z,23.60
2023-03-21T06:47:15.835Z,23.70
2023-03-21T06:49:45.897Z,23.48
2023-03-21T06:52:14.207Z,21.27
2023-03-21T06:54:42.632Z,23.77
2023-03-21T06:57:13.605Z,21.33
2023-03-21T06:59:42.595Z,20.52
2023-03-21T07:02:14.829Z,23.15
2023-03-21T07:04:48.846Z,20.73
2023-03-21T07:07:20.457Z,20.80
2023-03-21T07:09:48.184Z,20.35
2023-03-21T07:12:16.530Z,21.10
2023-03-21T07:15:30.426Z,20.48
2023-03-21T07:17:59.616Z,20.92
2023-03-21T07:20:27.435Z,20.17
2023-03-21T07:22:55.000Z,20.17
2023-03-21T07:25:25.263Z,19.17
2023-03-21T07:27:53.329Z,20.40
2023-03-21T07:30:21.149Z,19.67
2023-03-21T07:32:49.776Z,17.13
2023-03-21T07:35:18.304Z,15.05
2023-03-21T07:37:50.946Z,14.70
2023-03-21T07:40:19.169Z,14.23
2023-03-21T07:42:49.877Z,12.77
2023-03-21T07:45:35.498Z,13.60
2023-03-21T07:48:07.629Z,14.73
2023-03-21T07:50:35.392Z,14.60
2023-03-21T07:53:06.223Z,15.90
2023-03-21T07:55:35.179Z,17.20
2023-03-21T07:58:03.734Z,19.08
2023-03-21T08:00:31.939Z,18.67
2023-03-21T08:03:00.115Z,17.90
2023-03-21T08:05:38.378Z,19.30
2023-03-21T08:08:07.426Z,19.92
2023-03-21T08:10:36.194Z,24.38
2023-03-21T08:13:08.837Z,18.58
2023-03-21T08:15:38.000Z,17.45
2023-03-21T08:18:06.018Z,16.63
2023-03-21T08:20:37.974Z,18.05
2023-03-21T08:23:05.724Z,17.45
2023-03-21T08:25:33.368Z,18.20
2023-03-21T08:28:00.937Z,18.10
2023-03-21T08:30:29.262Z,17.13
2023-03-21T08:33:01.233Z,17.52
2023-03-21T08:35:31.553Z,16.65
2023-03-21T08:37:59.339Z,16.15
2023-03-21T08:40:27.311Z,17.33
2023-03-21T08:42:56.655Z,18.33
2023-03-21T08:45:24.581Z,18.77
2023-03-21T08:47:52.479Z,16.52
2023-03-21T08:50:22.733Z,16.85
2023-03-21T08:52:51.178Z,16.38
2023-03-21T08:55:19.535Z,16.75
2023-03-21T08:57:47.538Z,16.25
2023-03-21T09:00:20.819Z,16.45
2023-03-21T09:02:51.583Z,15.85
2023-03-21T09:05:19.687Z,16.05
2023-03-21T09:07:49.804Z,21.27
2023-03-21T09:10:22.484Z,16.73
2023-03-21T09:12:55.898Z,15.45
2023-03-21T09:15:28.860Z,14.93
2023-03-21T09:17:58.877Z,15.93
2023-03-21T09:20:33.025Z,16.00
2023-03-21T09:23:02.074Z,16.73
2023-03-21T09:25:31.536Z,15.97
2023-03-21T09:28:05.318Z,15.80
2023-03-21T09:30:34.944Z,15.88
2023-03-21T09:33:08.886Z,14.43
2023-03-21T09:35:37.247Z,14.20
2023-03-21T09:38:05.677Z,14.88
2023-03-21T09:40:59.925Z,14.38
2023-03-21T09:43:28.054Z,14.05
2023-03-21T09:46:19.630Z,13.95
2023-03-21T09:49:10.010Z,14.77
2023-03-21T09:51:46.212Z,14.45
2023-03-21T09:54:33.943Z,16.08
2023-03-21T09:57:37.230Z,15.32
2023-03-21T10:00:20.847Z,14.88
2023-03-21T10:02:54.645Z,14.98
2023-03-21T10:05:26.430Z,15.27
2023-03-21T10:07:53.978Z,14.30
2023-03-21T10:10:32.317Z,13.57
2023-03-21T10:13:27.030Z,13.80
2023-03-21T10:16:00.580Z,13.45
2023-03-21T10:18:31.093Z,13.35
2023-03-21T10:21:05.514Z,13.63
2023-03-21T10:23:33.426Z,12.75
2023-03-21T10:26:08.113Z,12.63
2023-03-21T10:28:52.551Z,12.57
2023-03-21T10:31:26.810Z,12.35
2023-03-21T10:34:04.365Z,13.23
2023-03-21T10:36:33.740Z,13.23
2023-03-21T10:39:17.556Z,14.13
2023-03-21T10:41:45.158Z,13.75
2023-03-21T10:44:16.664Z,13.45
2023-03-21T10:46:58.078Z,13.15
2023-03-21T10:49:26.830Z,14.05
2023-03-21T10:51:58.431Z,13.88
2023-03-21T10:54:31.012Z,13.98
2023-03-21T10:57:08.870Z,14.90
2023-03-21T10:59:44.396Z,14.70
2023-03-21T11:02:19.863Z,13.05
2023-03-21T11:04:53.213Z,12.98
2023-03-21T11:07:21.017Z,13.02
2023-03-21T11:09:52.548Z,13.60
2023-03-21T11:12:39.328Z,13.70
2023-03-21T11:15:33.602Z,16.83
2023-03-21T11:18:20.706Z,19.58
2023-03-21T11:20:55.671Z,11.93
2023-03-21T11:23:29.901Z,14.88
2023-03-21T11:26:00.488Z,10.93
2023-03-21T11:28:40.424Z,10.23
2023-03-21T11:31:10.455Z,11.15
2023-03-21T11:33:43.609Z,10.63
2023-03-21T11:36:20.922Z,10.70
2023-03-21T11:41:28.485Z,9.40
2023-03-21T11:43:59.051Z,9.23
2023-03-21T11:46:32.575Z,9.50
2023-03-21T11:49:01.510Z,10.10
2023-03-21T11:51:58.555Z,9.25
2023-03-21T11:54:36.950Z,8.90
2023-03-21T11:57:15.499Z,9.32
2023-03-21T12:00:22.750Z,9.63
2023-03-21T12:03:16.257Z,8.52
2023-03-21T12:05:55.105Z,8.60
2023-03-21T12:08:28.244Z,8.85
2023-03-21T12:10:59.585Z,8.70
2023-03-21T12:13:43.944Z,8.32
2023-03-21T12:16:14.687Z,9.05
2023-03-21T12:19:12.459Z,9.05
2023-03-21T12:22:00.695Z,8.35
2023-03-21T12:24:51.676Z,8.48
2023-03-21T12:27:57.611Z,8.65
2023-03-21T12:30:28.280Z,8.82
2023-03-21T12:33:08.115Z,8.40
2023-03-21T12:36:03.973Z,9.02
2023-03-21T12:38:51.502Z,8.70
2023-03-21T12:41:28.849Z,8.43
2023-03-21T12:43:59.549Z,7.97
2023-03-21T12:46:36.995Z,8.73
2023-03-21T12:49:18.061Z,9.15
2023-03-21T12:51:51.837Z,9.65
2023-03-21T12:54:38.753Z,9.25
2023-03-21T12:57:32.740Z,9.10
2023-03-21T13:00:13.301Z,9.05
2023-03-21T13:02:47.548Z,8.60
2023-03-21T13:05:47.043Z,9.30
2023-03-21T13:08:34.975Z,8.27
2023-03-21T13:11:03.938Z,8.98
2023-03-21T13:13:44.471Z,8.73
2023-03-21T13:16:49.605Z,7.78
2023-03-21T13:19:27.436Z,8.35
2023-03-21T13:22:18.432Z,8.18
2023-03-21T13:25:08.697Z,7.80
2023-03-21T13:27:39.515Z,6.88
2023-03-21T13:30:23.493Z,8.32
2023-03-21T13:33:02.761Z,7.20
2023-03-21T13:35:37.606Z,6.90
2023-03-21T13:38:18.648Z,8.13
2023-03-21T13:40:50.887Z,7.85
2023-03-21T13:43:56.115Z,7.80
2023-03-21T13:46:26.918Z,7.03
2023-03-21T13:49:01.032Z,10.75
2023-03-21T13:51:28.703Z,7.50
2023-03-21T13:54:01.578Z,7.93
2023-03-21T13:56:30.629Z,6.95
2023-03-21T13:59:01.498Z,7.28
2023-03-21T14:01:39.237Z,7.93
2023-03-21T14:04:13.884Z,10.85
2023-03-21T14:06:47.617Z,8.57
2023-03-21T14:09:21.829Z,8.27
2023-03-21T14:11:54.712Z,7.28
2023-03-21T14:14:35.415Z,8.05
2023-03-21T14:17:12.143Z,7.50
2023-03-21T14:19:39.910Z,7.70
2023-03-21T14:22:13.295Z,8.00
2023-03-21T14:24:47.991Z,7.50
2023-03-21T14:27:15.724Z,7.88
2023-03-21T14:29:46.254Z,8.75
2023-03-21T14:32:22.072Z,8.00
2023-03-21T14:34:50.636Z,8.70
2023-03-21T14:37:38.266Z,7.63
2023-03-21T14:40:18.849Z,12.45
2023-03-21T14:42:51.188Z,9.45
2023-03-21T14:45:28.118Z,8.18
2023-03-21T14:48:08.706Z,7.38
2023-03-21T14:50:51.731Z,8.25
2023-03-21T14:53:25.821Z,7.95
2023-03-21T14:56:07.067Z,8.10
2023-03-21T14:58:45.761Z,9.63
2023-03-21T15:01:25.161Z,9.18
2023-03-21T15:03:52.745Z,9.88
2023-03-21T15:06:21.336Z,10.07
2023-03-21T15:09:03.553Z,10.43
2023-03-21T15:11:38.348Z,10.07
2023-03-21T15:14:14.219Z,9.50
2023-03-21T15:16:42.074Z,9.38
2023-03-21T15:19:16.836Z,9.90
2023-03-21T15:21:53.063Z,11.32
2023-03-21T15:24:29.552Z,10.00
2023-03-21T15:27:04.344Z,9.65
2023-03-21T15:29:34.531Z,9.85
2023-03-21T15:32:06.900Z,9.23
2023-03-21T15:34:36.679Z,9.38
2023-03-21T15:37:06.809Z,9.18
2023-03-21T15:39:38.986Z,11.30
2023-03-21T15:42:23.441Z,9.88
2023-03-21T15:44:53.646Z,10.20
2023-03-21T15:47:42.397Z,10.10
2023-03-21T15:50:27.994Z,10.55
2023-03-21T15:53:00.311Z,14.73
2023-03-21T15:55:36.272Z,11.02
2023-03-21T15:58:16.261Z,21.85
2023-03-21T16:00:52.695Z,10.88
2023-03-21T16:03:25.972Z,11.15
2023-03-21T16:06:07.477Z,10.50
2023-03-21T16:08:44.828Z,9.95
2023-03-21T16:11:29.107Z,11.38
2023-03-21T16:13:56.895Z,10.80
2023-03-21T16:16:29.462Z,11.20
2023-03-21T16:19:03.280Z,10.95
2023-03-21T16:21:33.921Z,11.65
2023-03-21T16:24:02.291Z,11.93
2023-03-21T16:26:32.536Z,11.82
2023-03-21T16:29:00.262Z,11.88
2023-03-21T16:31:30.741Z,13.30
2023-03-21T16:34:00.007Z,13.43
2023-03-21T16:36:31.482Z,13.15
2023-03-21T16:39:02.263Z,13.38
2023-03-21T16:41:30.130Z,13.30
2023-03-21T16:43:57.632Z,15.05
2023-03-21T16:46:27.483Z,13.98
2023-03-21T16:48:57.766Z,13.02
2023-03-21T16:51:30.655Z,12.02
2023-03-21T16:53:58.818Z,12.50
2023-03-21T16:56:36.182Z,12.35
2023-03-21T16:59:06.040Z,12.38
2023-03-21T17:01:38.467Z,11.82
2023-03-21T17:04:06.335Z,12.30
2023-03-21T17:06:49.421Z,11.98
2023-03-21T17:09:19.409Z,12.13
2023-03-21T17:11:53.008Z,12.65
2023-03-21T17:14:21.684Z,13.18
2023-03-21T17:16:49.328Z,13.23
2023-03-21T17:19:20.479Z,12.52
2023-03-21T17:21:48.184Z,12.30
2023-03-21T17:24:15.963Z,11.88
2023-03-21T17:26:44.152Z,12.68
2023-03-21T17:29:15.336Z,12.38
2023-03-21T17:31:47.513Z,12.25
2023-03-21T17:34:15.918Z,11.27
2023-03-21T17:36:46.319Z,10.90
2023-03-21T17:39:22.676Z,11.98
2023-03-21T17:41:52.111Z,14.30
2023-03-21T17:44:20.426Z,12.57
2023-03-21T17:46:50.395Z,12.48
2023-03-21T17:49:21.328Z,10.48
2023-03-21T17:51:49.123Z,11.68
2023-03-21T17:54:16.640Z,12.38
2023-03-21T17:56:45.316Z,12.00
2023-03-21T17:59:14.614Z,11.40
2023-03-21T18:01:47.601Z,12.52
2023-03-21T18:04:15.631Z,12.57
2023-03-21T18:06:43.613Z,12.60
2023-03-21T18:09:12.401Z,11.85
2023-03-21T18:11:41.451Z,12.57
2023-03-21T18:14:17.672Z,12.40
2023-03-21T18:16:48.072Z,12.93
2023-03-21T18:19:16.215Z,18.98
2023-03-21T18:21:47.418Z,18.90
2023-03-21T18:24:15.821Z,12.63
2023-03-21T18:26:44.307Z,13.25
2023-03-21T18:32:07.290Z,13.23
2023-03-21T18:34:37.183Z,13.02
2023-03-21T18:37:08.002Z,13.27
2023-03-21T18:39:37.182Z,12.43
2023-03-21T18:42:06.506Z,13.05
2023-03-21T18:44:38.998Z,13.85
2023-03-21T18:47:08.585Z,13.85
2023-03-21T18:52:29.452Z,12.93
2023-03-21T18:54:57.558Z,13.43
2023-03-21T18:57:41.703Z,12.43
2023-03-21T19:00:13.499Z,13.00
2023-03-21T19:02:48.490Z,12.45
2023-03-21T19:05:24.472Z,13.05
2023-03-21T19:07:53.015Z,12.93
2023-03-21T19:10:22.864Z,12.57
2023-03-21T19:12:54.849Z,12.45
2023-03-21T19:15:24.160Z,12.65
2023-03-21T19:18:30.731Z,13.02
2023-03-21T19:20:47.160Z,12.27
2023-03-21T19:23:17.266Z,13.10
2023-03-21T19:25:45.306Z,12.90
2023-03-21T19:28:14.656Z,13.63
2023-03-21T19:30:49.643Z,12.95
2023-03-21T19:33:24.573Z,13.75
2023-03-21T19:36:09.166Z,13.05
2023-03-21T19:38:38.640Z,13.02
2023-03-21T19:41:06.633Z,17.10
2023-03-21T19:43:34.794Z,12.85
2023-03-21T19:46:02.911Z,11.85
2023-03-21T19:48:31.012Z,12.32
2023-03-21T19:51:36.408Z,13.45
2023-03-21T19:53:50.502Z,13.20
2023-03-21T19:56:22.989Z,12.95
2023-03-21T19:58:52.465Z,13.75
2023-03-21T20:01:20.073Z,12.02
2023-03-21T20:03:47.718Z,10.93
2023-03-21T20:06:16.735Z,13.70
2023-03-21T20:11:32.057Z,10.48
2023-03-21T20:14:05.415Z,10.98
2023-03-21T20:16:35.990Z,10.48
2023-03-21T20:19:10.065Z,10.30
2023-03-21T20:21:49.213Z,9.75
2023-03-21T20:24:20.902Z,11.40
2023-03-21T20:26:52.309Z,10.82
2023-03-21T20:30:07.013Z,9.80
2023-03-21T20:32:07.637Z,9.98
2023-03-21T20:34:36.888Z,9.32
2023-03-21T20:37:08.323Z,9.90
2023-03-21T20:39:36.286Z,10.18
2023-03-21T20:42:05.378Z,9.73
2023-03-21T20:44:58.422Z,9.75
2023-03-21T20:47:28.983Z,10.40
2023-03-21T20:50:00.362Z,9.55
2023-03-21T20:55:19.301Z,8.75
2023-03-21T20:57:48.833Z,9.30
2023-03-21T21:00:17.484Z,9.70
2023-03-21T21:02:46.498Z,9.57
2023-03-21T21:05:34.368Z,9.40
2023-03-21T21:08:03.667Z,13.85
2023-03-21T21:10:36.440Z,8.88
2023-03-21T21:13:12.692Z,9.20
2023-03-21T21:15:40.343Z,9.73
2023-03-21T21:18:10.002Z,10.55
2023-03-21T21:20:38.798Z,10.23
2023-03-21T21:23:09.603Z,9.82
2023-03-21T21:25:38.803Z,9.98
2023-03-21T21:28:09.660Z,9.73
2023-03-21T21:30:41.737Z,10.15
2023-03-21T21:33:10.002Z,10.30
2023-03-21T21:35:38.634Z,9.63
2023-03-21T21:38:06.481Z,10.02
2023-03-21T21:40:34.390Z,9.90
2023-03-21T21:43:03.886Z,9.32
2023-03-21T21:45:33.022Z,9.88
2023-03-21T21:48:00.802Z,9.43
2023-03-21T21:50:28.929Z,9.05
2023-03-21T21:52:56.629Z,8.82
2023-03-21T21:55:25.587Z,9.55
2023-03-21T21:57:58.026Z,9.85
2023-03-21T22:00:28.007Z,9.15
2023-03-21T22:02:55.976Z,9.57
2023-03-21T22:05:24.073Z,17.80
2023-03-21T22:07:56.574Z,10.60
2023-03-21T22:10:27.625Z,9.57
2023-03-21T22:12:55.318Z,9.60
2023-03-21T22:15:28.873Z,10.27
2023-03-21T22:17:57.890Z,11.45
2023-03-21T22:20:25.460Z,14.95
2023-03-21T22:23:02.710Z,11.85
2023-03-21T22:25:33.190Z,10.80
2023-03-21T22:30:28.735Z,12.65
2023-03-21T22:33:08.802Z,11.85
2023-03-21T22:35:42.339Z,11.52
2023-03-21T22:38:10.429Z,10.88
2023-03-21T22:40:38.461Z,10.27
2023-03-21T22:43:08.443Z,12.27
2023-03-21T22:45:36.255Z,10.98
2023-03-21T22:48:05.542Z,13.25
2023-03-21T22:50:35.009Z,10.85
2023-03-21T22:53:02.668Z,11.57
2023-03-21T22:55:30.634Z,11.77
2023-03-21T22:57:58.465Z,12.43
2023-03-21T23:00:26.740Z,11.40
2023-03-21T23:02:55.282Z,10.65
2023-03-21T23:05:23.576Z,11.95
2023-03-21T23:07:51.082Z,11.75
2023-03-21T23:10:19.197Z,12.07
2023-03-21T23:12:47.280Z,13.77
2023-03-21T23:15:17.487Z,13.27
2023-03-21T23:17:45.702Z,13.85
2023-03-21T23:20:13.426Z,13.88
2023-03-21T23:22:44.809Z,12.98
2023-03-21T23:25:12.796Z,12.80
2023-03-21T23:27:40.478Z,12.95
2023-03-21T23:30:08.383Z,12.95
2023-03-21T23:32:36.988Z,12.85
2023-03-21T23:35:13.537Z,14.57
2023-03-21T23:37:42.557Z,12.80
2023-03-21T23:40:10.958Z,13.43
2023-03-21T23:42:39.177Z,13.15
2023-03-21T23:45:07.488Z,13.13
2023-03-21T23:47:35.061Z,12.95
2023-03-21T23:50:07.000Z,13.35
2023-03-21T23:52:37.060Z,12.88
2023-03-21T23:55:06.027Z,13.07
2023-03-21T23:57:33.885Z,13.65
